createdAt,value
2023-04-28T00:02:02.405Z,0.10
2023-04-28T00:04:30.116Z,0.10
2023-04-28T00:06:56.908Z,0.10
2023-04-28T00:09:24.294Z,0.10
2023-04-28T00:11:51.051Z,0.10
2023-04-28T00:14:17.947Z,0.10
2023-04-28T00:16:44.805Z,0.10
2023-04-28T00:19:11.644Z,0.10
2023-04-28T00:21:38.320Z,0.10
2023-04-28T00:24:05.279Z,0.10
2023-04-28T00:26:31.914Z,0.10
2023-04-28T00:28:58.559Z,0.10
2023-04-28T00:31:25.470Z,0.10
2023-04-28T00:33:52.240Z,0.10
2023-04-28T00:36:18.913Z,0.10
2023-04-28T00:38:45.782Z,0.10
2023-04-28T00:41:13.153Z,0.10
2023-04-28T00:43:48.073Z,0.10
2023-04-28T00:46:23.445Z,0.10
2023-04-28T00:48:50.802Z,0.10
2023-04-28T00:51:17.877Z,0.10
2023-04-28T00:53:45.870Z,0.10
2023-04-28T00:56:13.161Z,0.10
2023-04-28T00:58:40.249Z,0.10
2023-04-28T01:01:09.879Z,0.10
2023-04-28T01:03:41.512Z,0.10
2023-04-28T01:06:10.398Z,0.10
2023-04-28T01:08:39.004Z,0.10
2023-04-28T01:11:14.505Z,0.10
2023-04-28T01:14:01.766Z,0.10
2023-04-28T01:16:33.782Z,0.10
2023-04-28T01:19:01.288Z,0.10
2023-04-28T01:21:32.759Z,0.10
2023-04-28T01:24:06.553Z,0.10
2023-04-28T01:26:33.381Z,0.10
2023-04-28T01:29:01.758Z,0.10
2023-04-28T01:31:31.315Z,0.10
2023-04-28T01:33:58.552Z,0.10
2023-04-28T01:36:27.469Z,0.10
2023-04-28T01:38:55.261Z,0.10
2023-04-28T01:41:22.585Z,0.10
2023-04-28T01:43:49.298Z,0.10
2023-04-28T01:46:16.176Z,0.10
2023-04-28T01:48:43.042Z,0.10
2023-04-28T01:51:09.658Z,0.10
2023-04-28T01:53:38.662Z,0.10
2023-04-28T01:56:05.445Z,0.10
2023-04-28T01:58:32.155Z,0.10
2023-04-28T02:00:59.405Z,0.10
2023-04-28T02:03:26.423Z,0.10
2023-04-28T02:05:54.637Z,0.10
2023-04-28T02:08:21.878Z,0.10
2023-04-28T02:10:48.590Z,0.10
2023-04-28T02:13:15.327Z,0.10
2023-04-28T02:15:43.165Z,0.10
2023-04-28T02:18:12.890Z,0.10
2023-04-28T02:20:40.356Z,0.10
2023-04-28T02:23:08.391Z,0.10
2023-04-28T02:25:35.160Z,0.10
2023-04-28T02:28:02.089Z,0.10
2023-04-28T02:30:29.029Z,0.20
2023-04-28T02:32:56.287Z,0.10
2023-04-28T02:35:23.547Z,0.10
2023-04-28T02:37:50.670Z,0.20
2023-04-28T02:40:18.824Z,0.10
2023-04-28T02:42:45.608Z,0.20
2023-04-28T02:45:12.750Z,0.20
2023-04-28T02:47:39.849Z,0.20
2023-04-28T02:50:07.340Z,0.10
2023-04-28T02:52:34.117Z,0.10
2023-04-28T02:55:01.001Z,0.10
2023-04-28T02:57:27.632Z,0.10
2023-04-28T02:59:54.515Z,0.20
2023-04-28T03:02:23.312Z,0.10
2023-04-28T03:04:50.234Z,0.17
2023-04-28T03:07:17.287Z,0.10
2023-04-28T03:09:44.134Z,0.10
2023-04-28T03:12:10.848Z,0.20
2023-04-28T03:14:37.558Z,0.10
2023-04-28T03:17:04.348Z,0.10
2023-04-28T03:19:31.011Z,0.10
2023-04-28T03:21:57.846Z,0.17
2023-04-28T03:24:24.574Z,0.20
2023-04-28T03:26:51.408Z,0.20
2023-04-28T03:29:18.064Z,0.10
2023-04-28T03:31:44.862Z,0.10
2023-04-28T03:34:12.496Z,0.10
2023-04-28T03:36:39.335Z,0.10
2023-04-28T03:39:14.216Z,0.10
2023-04-28T03:41:42.084Z,0.10
2023-04-28T03:44:37.648Z,0.10
2023-04-28T03:47:06.554Z,0.10
2023-04-28T03:49:33.354Z,0.10
2023-04-28T03:52:00.154Z,0.10
2023-04-28T03:54:26.948Z,0.20
2023-04-28T03:56:53.785Z,0.10
2023-04-28T03:59:21.243Z,0.10
2023-04-28T04:01:49.332Z,0.10
2023-04-28T04:04:16.666Z,0.20
2023-04-28T04:06:44.210Z,0.20
2023-04-28T04:09:11.751Z,0.10
2023-04-28T04:11:38.620Z,0.10
2023-04-28T04:14:06.458Z,0.10
2023-04-28T04:16:33.325Z,0.10
2023-04-28T04:19:00.119Z,0.10
2023-04-28T04:21:35.999Z,0.20
2023-04-28T04:24:02.760Z,0.17
2023-04-28T04:26:29.827Z,0.10
2023-04-28T04:28:56.894Z,0.10
2023-04-28T04:31:23.880Z,0.20
2023-04-28T04:33:51.932Z,0.10
2023-04-28T04:36:20.549Z,0.10
2023-04-28T04:38:47.640Z,0.20
2023-04-28T04:41:20.797Z,0.20
2023-04-28T04:43:48.758Z,0.10
2023-04-28T04:46:15.775Z,0.10
2023-04-28T04:48:42.472Z,0.10
2023-04-28T04:51:09.391Z,0.20
2023-04-28T04:53:36.477Z,0.20
2023-04-28T04:56:03.598Z,0.10
2023-04-28T04:58:32.120Z,0.20
2023-04-28T05:01:22.365Z,0.20
2023-04-28T05:03:49.200Z,0.20
2023-04-28T05:06:16.235Z,0.10
2023-04-28T05:08:45.896Z,0.20
2023-04-28T05:11:12.713Z,0.10
2023-04-28T05:13:41.006Z,0.10
2023-04-28T05:16:07.793Z,0.10
2023-04-28T05:18:57.738Z,0.20
2023-04-28T05:21:24.490Z,0.20
2023-04-28T05:23:51.247Z,0.15
2023-04-28T05:26:17.995Z,0.20
2023-04-28T05:28:44.877Z,0.13
2023-04-28T05:31:11.628Z,0.10
2023-04-28T05:33:38.353Z,0.20
2023-04-28T05:36:05.635Z,0.20
2023-04-28T05:38:34.118Z,0.10
2023-04-28T05:41:02.048Z,0.20
2023-04-28T05:43:29.071Z,0.20
2023-04-28T05:45:56.003Z,0.10
2023-04-28T05:48:22.831Z,0.10
2023-04-28T05:50:49.681Z,0.10
2023-04-28T05:53:16.497Z,0.10
2023-04-28T05:55:43.344Z,0.20
2023-04-28T05:58:10.254Z,0.20
2023-04-28T06:00:37.849Z,0.20
2023-04-28T06:03:05.669Z,0.10
2023-04-28T06:05:33.303Z,0.10
2023-04-28T06:08:00.206Z,0.20
2023-04-28T06:10:27.124Z,0.20
2023-04-28T06:12:53.933Z,0.20
2023-04-28T06:15:20.750Z,0.10
2023-04-28T06:17:48.258Z,0.20
2023-04-28T06:20:16.766Z,0.10
2023-04-28T06:22:43.932Z,0.10
2023-04-28T06:25:10.765Z,0.20
2023-04-28T06:27:55.502Z,0.17
2023-04-28T06:30:23.541Z,0.10
2023-04-28T06:32:50.894Z,0.20
2023-04-28T06:35:18.037Z,0.10
2023-04-28T06:37:44.819Z,0.10
2023-04-28T06:40:11.870Z,0.10
2023-04-28T06:42:42.122Z,0.10
2023-04-28T06:45:17.796Z,0.10
2023-04-28T06:47:44.999Z,0.20
2023-04-28T06:50:12.464Z,0.20
2023-04-28T06:52:40.015Z,0.20
2023-04-28T06:55:09.473Z,0.10
2023-04-28T06:57:38.104Z,0.13
2023-04-28T07:00:05.586Z,0.10
2023-04-28T07:02:32.381Z,0.10
2023-04-28T07:04:59.337Z,0.10
2023-04-28T07:07:26.636Z,0.20
2023-04-28T07:09:53.673Z,0.10
2023-04-28T07:12:21.423Z,0.10
2023-04-28T07:14:48.233Z,0.10
2023-04-28T07:17:14.998Z,0.10
2023-04-28T07:19:41.758Z,0.10
2023-04-28T07:22:08.564Z,0.10
2023-04-28T07:24:35.676Z,0.10
2023-04-28T07:27:03.921Z,0.10
2023-04-28T07:29:34.261Z,0.10
2023-04-28T07:32:09.168Z,0.10
2023-04-28T07:34:38.066Z,0.10
2023-04-28T07:37:05.706Z,0.10
2023-04-28T07:39:35.160Z,0.10
2023-04-28T07:42:03.476Z,0.10
2023-04-28T07:44:31.607Z,0.10
2023-04-28T07:46:59.979Z,0.10
2023-04-28T07:49:28.632Z,0.10
2023-04-28T07:51:55.954Z,0.10
2023-04-28T07:54:23.013Z,0.10
2023-04-28T07:56:50.320Z,0.10
2023-04-28T07:59:16.997Z,0.10
2023-04-28T08:01:43.690Z,0.10
2023-04-28T08:04:12.175Z,0.10
2023-04-28T08:06:40.243Z,0.10
2023-04-28T08:09:07.036Z,0.10
2023-04-28T08:11:34.778Z,0.10
2023-04-28T08:14:03.404Z,0.10
2023-04-28T08:16:31.261Z,0.10
2023-04-28T08:18:58.280Z,0.10
2023-04-28T08:21:25.165Z,0.10
2023-04-28T08:23:51.871Z,0.10
2023-04-28T08:26:18.755Z,0.10
2023-04-28T08:28:45.633Z,0.00
2023-04-28T08:31:12.340Z,0.10
2023-04-28T08:33:39.228Z,0.03
2023-04-28T08:36:06.653Z,0.10
2023-04-28T08:38:33.529Z,0.10
2023-04-28T08:41:00.186Z,0.10
2023-04-28T08:43:28.805Z,0.00
2023-04-28T08:45:55.700Z,0.10
2023-04-28T08:48:23.170Z,0.10
2023-04-28T08:50:54.853Z,0.10
2023-04-28T08:53:26.057Z,0.10
2023-04-28T08:55:56.851Z,0.10
2023-04-28T08:58:24.971Z,0.03
2023-04-28T09:00:52.794Z,0.00
2023-04-28T09:03:19.959Z,0.00
2023-04-28T09:05:47.310Z,0.10
2023-04-28T09:08:14.375Z,0.03
2023-04-28T09:10:41.504Z,0.10
2023-04-28T09:13:08.212Z,0.10
2023-04-28T09:15:41.452Z,0.10
2023-04-28T09:18:08.822Z,0.10
2023-04-28T09:20:36.457Z,0.10
2023-04-28T09:23:16.146Z,0.10
2023-04-28T09:25:59.708Z,0.00
2023-04-28T09:28:26.570Z,0.10
2023-04-28T09:30:54.173Z,0.03
2023-04-28T09:33:22.089Z,0.10
2023-04-28T09:35:49.142Z,0.00
2023-04-28T09:38:16.612Z,0.00
2023-04-28T09:40:57.325Z,0.00
2023-04-28T09:43:28.501Z,0.00
2023-04-28T09:45:56.682Z,0.00
2023-04-28T09:48:33.603Z,0.00
2023-04-28T09:51:01.798Z,0.00
2023-04-28T09:53:29.567Z,0.00
2023-04-28T09:55:59.430Z,0.00
2023-04-28T09:58:27.855Z,0.00
2023-04-28T10:00:55.402Z,0.00
2023-04-28T10:03:26.079Z,0.00
2023-04-28T10:05:54.956Z,0.00
2023-04-28T10:08:22.832Z,0.00
2023-04-28T10:10:50.309Z,0.00
2023-04-28T10:13:18.176Z,0.00
2023-04-28T10:15:46.155Z,0.00
2023-04-28T10:18:15.229Z,0.00
2023-04-28T10:20:48.537Z,0.00
2023-04-28T10:23:59.920Z,0.00
2023-04-28T10:26:52.478Z,0.00
2023-04-28T10:29:24.990Z,0.00
2023-04-28T10:32:17.509Z,0.00
2023-04-28T10:34:44.748Z,0.00
2023-04-28T10:37:11.550Z,0.00
2023-04-28T10:39:38.670Z,0.00
2023-04-28T10:42:05.447Z,0.00
2023-04-28T10:44:32.136Z,0.00
2023-04-28T10:47:03.259Z,0.00
2023-04-28T10:49:54.851Z,0.00
2023-04-28T10:52:33.585Z,0.00
2023-04-28T10:55:28.933Z,0.00
2023-04-28T10:58:20.523Z,0.00
2023-04-28T11:00:48.324Z,0.00
2023-04-28T11:03:37.017Z,0.00
2023-04-28T11:06:29.082Z,0.00
2023-04-28T11:09:22.582Z,0.00
2023-04-28T11:11:58.128Z,0.00
2023-04-28T11:14:36.203Z,0.00
2023-04-28T11:17:05.557Z,0.00
2023-04-28T11:19:37.896Z,0.00
2023-04-28T11:22:11.884Z,0.00
2023-04-28T11:24:38.602Z,0.00
2023-04-28T11:27:05.409Z,0.00
2023-04-28T11:29:40.232Z,0.00
2023-04-28T11:32:08.785Z,0.00
2023-04-28T11:34:37.113Z,0.00
2023-04-28T11:37:04.088Z,0.00
2023-04-28T11:39:32.713Z,0.00
2023-04-28T11:42:02.538Z,0.00
2023-04-28T11:44:31.528Z,0.00
2023-04-28T11:47:01.567Z,0.00
2023-04-28T11:49:30.737Z,0.00
2023-04-28T11:52:00.579Z,0.00
2023-04-28T11:54:28.913Z,0.00
2023-04-28T11:56:57.734Z,0.00
2023-04-28T11:59:26.176Z,0.00
2023-04-28T12:01:55.822Z,0.00
2023-04-28T12:04:32.904Z,0.00
2023-04-28T12:07:02.232Z,0.00
2023-04-28T12:09:29.379Z,0.00
2023-04-28T12:11:58.584Z,0.00
2023-04-28T12:14:26.073Z,0.00
2023-04-28T12:16:53.332Z,0.00
2023-04-28T12:19:21.041Z,0.00
2023-04-28T12:22:01.932Z,0.00
2023-04-28T12:24:29.082Z,0.00
2023-04-28T12:27:14.864Z,0.00
2023-04-28T12:29:42.903Z,0.00
2023-04-28T12:32:11.269Z,0.00
2023-04-28T12:34:39.962Z,0.00
2023-04-28T12:37:06.982Z,0.00
2023-04-28T12:39:36.398Z,0.00
2023-04-28T12:42:04.852Z,0.00
2023-04-28T12:44:36.823Z,0.00
2023-04-28T12:47:08.192Z,0.00
2023-04-28T12:49:38.922Z,0.00
2023-04-28T12:52:05.967Z,0.00
2023-04-28T12:54:32.766Z,0.00
2023-04-28T12:56:59.517Z,0.00
2023-04-28T12:59:26.903Z,0.00
2023-04-28T13:01:53.724Z,0.00
2023-04-28T13:04:20.807Z,0.00
2023-04-28T13:06:48.182Z,0.00
2023-04-28T13:09:16.058Z,0.00
2023-04-28T13:11:43.156Z,0.00
2023-04-28T13:14:10.055Z,0.00
2023-04-28T13:16:37.166Z,0.00
2023-04-28T13:19:04.548Z,0.00
2023-04-28T13:21:32.156Z,0.00
2023-04-28T13:23:58.866Z,0.00
2023-04-28T13:26:27.004Z,0.00
2023-04-28T13:28:53.740Z,0.00
2023-04-28T13:31:20.620Z,0.00
2023-04-28T13:33:47.600Z,0.00
2023-04-28T13:36:14.456Z,0.00
2023-04-28T13:38:41.232Z,0.00
2023-04-28T13:41:08.028Z,0.00
2023-04-28T13:43:34.883Z,0.00
2023-04-28T13:46:01.972Z,0.00
2023-04-28T13:48:33.730Z,0.00
2023-04-28T13:51:00.511Z,0.00
2023-04-28T13:53:27.138Z,0.00
2023-04-28T13:55:54.104Z,0.00
2023-04-28T13:58:21.280Z,0.00
2023-04-28T14:00:48.064Z,0.00
2023-04-28T14:03:15.795Z,0.00
2023-04-28T14:05:49.546Z,0.00
2023-04-28T14:08:19.348Z,0.00
2023-04-28T14:10:48.364Z,0.00
2023-04-28T14:13:15.688Z,0.00
2023-04-28T14:15:51.238Z,0.00
2023-04-28T14:18:25.269Z,0.00
2023-04-28T14:20:52.116Z,0.00
2023-04-28T14:23:18.786Z,0.00
2023-04-28T14:25:45.515Z,0.00
2023-04-28T14:28:12.417Z,0.00
2023-04-28T14:30:39.071Z,0.00
2023-04-28T14:33:06.961Z,0.00
2023-04-28T14:35:34.798Z,0.00
2023-04-28T14:38:01.797Z,0.00
2023-04-28T14:40:28.450Z,0.00
2023-04-28T14:42:55.159Z,0.00
2023-04-28T14:45:22.196Z,0.00
2023-04-28T14:47:49.829Z,0.00
2023-04-28T14:50:17.051Z,0.00
2023-04-28T14:52:44.269Z,0.00
2023-04-28T14:55:11.060Z,0.00
2023-04-28T14:57:37.994Z,0.00
2023-04-28T15:00:07.259Z,0.00
2023-04-28T15:02:34.468Z,0.00
2023-04-28T15:05:01.626Z,0.00
2023-04-28T15:07:31.557Z,0.00
2023-04-28T15:10:01.836Z,0.00
2023-04-28T15:12:32.281Z,0.00
2023-04-28T15:14:59.114Z,0.00
2023-04-28T15:17:26.124Z,0.00
2023-04-28T15:19:52.826Z,0.00
2023-04-28T15:22:19.566Z,0.00
2023-04-28T15:24:46.552Z,0.00
2023-04-28T15:27:13.375Z,0.00
2023-04-28T15:29:40.268Z,0.00
2023-04-28T15:32:07.197Z,0.00
2023-04-28T15:34:34.344Z,0.00
2023-04-28T15:37:01.647Z,0.00
2023-04-28T15:39:28.792Z,0.00
2023-04-28T15:41:56.289Z,0.00
2023-04-28T15:44:23.320Z,0.00
2023-04-28T15:46:52.126Z,0.00
2023-04-28T15:49:18.910Z,0.00
2023-04-28T15:51:45.897Z,0.00
2023-04-28T15:54:13.024Z,0.00
2023-04-28T15:56:39.870Z,0.00
2023-04-28T15:59:06.962Z,0.00
2023-04-28T16:01:33.953Z,0.00
2023-04-28T16:04:01.758Z,0.00
2023-04-28T16:06:29.215Z,0.00
2023-04-28T16:08:57.069Z,0.00
2023-04-28T16:11:24.589Z,0.00
2023-04-28T16:13:51.563Z,0.00
2023-04-28T16:16:21.080Z,0.00
2023-04-28T16:18:48.006Z,0.00
2023-04-28T16:21:17.473Z,0.00
2023-04-28T16:23:44.771Z,0.00
2023-04-28T16:26:11.655Z,0.00
2023-04-28T16:28:38.508Z,0.00
2023-04-28T16:31:05.319Z,0.00
2023-04-28T16:33:32.433Z,0.00
2023-04-28T16:35:59.999Z,0.00
2023-04-28T16:38:26.725Z,0.00
2023-04-28T16:40:53.574Z,0.00
2023-04-28T16:43:21.203Z,0.00
2023-04-28T16:45:48.288Z,0.00
2023-04-28T16:48:20.330Z,0.00
2023-04-28T16:50:47.141Z,0.00
2023-04-28T16:53:13.808Z,0.00
2023-04-28T16:55:40.777Z,0.00
2023-04-28T16:58:07.738Z,0.00
2023-04-28T17:00:34.441Z,0.00
2023-04-28T17:03:01.412Z,0.00
2023-04-28T17:05:28.934Z,0.00
2023-04-28T17:07:57.248Z,0.00
2023-04-28T17:10:25.568Z,0.00
2023-04-28T17:12:52.668Z,0.00
2023-04-28T17:15:19.447Z,0.00
2023-04-28T17:17:49.388Z,0.00
2023-04-28T17:20:19.991Z,0.00
2023-04-28T17:22:47.837Z,0.00
2023-04-28T17:25:14.832Z,0.00
2023-04-28T17:27:41.556Z,0.00
2023-04-28T17:30:11.661Z,0.00
2023-04-28T17:32:38.761Z,0.00
2023-04-28T17:35:10.527Z,0.00
2023-04-28T17:37:37.463Z,0.00
2023-04-28T17:40:04.814Z,0.00
2023-04-28T17:42:32.085Z,0.00
2023-04-28T17:44:59.381Z,0.00
2023-04-28T17:47:26.247Z,0.00
2023-04-28T17:49:53.025Z,0.00
2023-04-28T17:52:19.859Z,0.00
2023-04-28T17:54:46.615Z,0.00
2023-04-28T17:57:14.062Z,0.00
2023-04-28T17:59:40.889Z,0.00
2023-04-28T18:02:11.440Z,0.00
2023-04-28T18:04:38.537Z,0.00
2023-04-28T18:07:07.350Z,0.00
2023-04-28T18:09:34.099Z,0.00
2023-04-28T18:12:03.245Z,0.00
2023-04-28T18:14:30.730Z,0.00
2023-04-28T18:16:58.356Z,0.00
2023-04-28T18:19:28.890Z,0.00
2023-04-28T18:21:57.145Z,0.00
2023-04-28T18:24:24.716Z,0.00
2023-04-28T18:26:51.626Z,0.00
2023-04-28T18:29:19.101Z,0.00
2023-04-28T18:31:46.449Z,0.00
2023-04-28T18:34:13.434Z,0.00
2023-04-28T18:36:40.479Z,0.00
2023-04-28T18:39:08.974Z,0.00
2023-04-28T18:41:36.671Z,0.00
2023-04-28T18:44:03.524Z,0.00
2023-04-28T18:46:30.522Z,0.00
2023-04-28T18:48:57.482Z,0.00
2023-04-28T18:51:24.380Z,0.00
2023-04-28T18:53:51.114Z,0.00
2023-04-28T18:56:17.947Z,0.00
2023-04-28T18:58:45.901Z,0.00
2023-04-28T19:01:14.312Z,0.00
2023-04-28T19:03:41.574Z,0.00
2023-04-28T19:06:09.016Z,0.00
2023-04-28T19:08:39.092Z,0.00
2023-04-28T19:11:09.633Z,0.00
2023-04-28T19:13:36.876Z,0.00
2023-04-28T19:16:04.223Z,0.00
2023-04-28T19:18:32.129Z,0.00
2023-04-28T19:21:02.918Z,0.00
2023-04-28T19:23:30.755Z,0.00
2023-04-28T19:25:58.669Z,0.00
2023-04-28T19:28:26.373Z,0.00
2023-04-28T19:30:54.332Z,0.00
2023-04-28T19:33:24.317Z,0.00
2023-04-28T19:35:55.711Z,0.00
2023-04-28T19:38:23.571Z,0.00
2023-04-28T19:40:53.715Z,0.00
2023-04-28T19:43:20.528Z,0.00
2023-04-28T19:45:47.857Z,0.00
2023-04-28T19:48:14.751Z,0.00
2023-04-28T19:50:42.370Z,0.00
2023-04-28T19:53:09.614Z,0.00
2023-04-28T19:55:37.093Z,0.00
2023-04-28T19:58:06.170Z,0.00
2023-04-28T20:00:33.506Z,0.00
2023-04-28T20:03:00.744Z,0.00
2023-04-28T20:05:27.636Z,0.00
2023-04-28T20:07:56.088Z,0.00
2023-04-28T20:10:23.972Z,0.00
2023-04-28T20:12:51.010Z,0.00
2023-04-28T20:15:18.583Z,0.00
2023-04-28T20:17:46.257Z,0.00
2023-04-28T20:20:13.595Z,0.00
2023-04-28T20:22:43.712Z,0.00
2023-04-28T20:25:11.026Z,0.00
2023-04-28T20:27:38.116Z,0.00
2023-04-28T20:30:05.411Z,0.00
2023-04-28T20:32:32.351Z,0.00
2023-04-28T20:34:59.533Z,0.00
2023-04-28T20:37:26.627Z,0.00
2023-04-28T20:39:53.691Z,0.00
2023-04-28T20:42:20.460Z,0.00
2023-04-28T20:44:47.355Z,0.00
2023-04-28T20:47:14.372Z,0.00
2023-04-28T20:49:42.474Z,0.00
2023-04-28T20:52:09.824Z,0.00
2023-04-28T20:54:36.857Z,0.00
2023-04-28T20:57:04.721Z,0.00
2023-04-28T20:59:32.772Z,0.00
2023-04-28T21:02:00.449Z,0.00
2023-04-28T21:04:28.440Z,0.00
2023-04-28T21:06:55.784Z,0.00
2023-04-28T21:09:25.506Z,0.00
2023-04-28T21:11:52.789Z,0.00
2023-04-28T21:14:19.552Z,0.00
2023-04-28T21:16:46.254Z,0.00
2023-04-28T21:19:13.039Z,0.00
2023-04-28T21:21:39.784Z,0.00
2023-04-28T21:24:08.154Z,0.00
2023-04-28T21:26:36.017Z,0.00
2023-04-28T21:29:03.081Z,0.00
2023-04-28T21:31:30.892Z,0.00
2023-04-28T21:33:57.764Z,0.00
2023-04-28T21:36:24.507Z,0.00
2023-04-28T21:38:51.386Z,0.00
2023-04-28T21:41:18.323Z,0.00
2023-04-28T21:43:45.065Z,0.10
2023-04-28T21:46:12.668Z,0.00
2023-04-28T21:48:39.397Z,0.00
2023-04-28T21:51:06.236Z,0.00
2023-04-28T21:53:33.003Z,0.00
2023-04-28T21:55:59.778Z,0.08
2023-04-28T21:58:26.487Z,0.00
2023-04-28T22:00:55.059Z,0.00
2023-04-28T22:03:22.218Z,0.00
2023-04-28T22:05:49.512Z,0.00
2023-04-28T22:08:17.144Z,0.00
2023-04-28T22:10:45.774Z,0.00
2023-04-28T22:13:16.121Z,0.00
2023-04-28T22:15:43.240Z,0.00
2023-04-28T22:18:10.134Z,0.00
2023-04-28T22:20:36.941Z,0.00
2023-04-28T22:23:03.810Z,0.00
2023-04-28T22:25:30.609Z,0.00
2023-04-28T22:27:57.481Z,0.00
2023-04-28T22:30:25.927Z,0.00
2023-04-28T22:32:53.452Z,0.10
2023-04-28T22:35:20.229Z,0.00
2023-04-28T22:37:47.034Z,0.00
2023-04-28T22:40:13.966Z,0.03
2023-04-28T22:42:41.992Z,0.00
2023-04-28T22:45:10.459Z,0.00
2023-04-28T22:47:39.800Z,0.00
2023-04-28T22:50:10.960Z,0.00
2023-04-28T22:52:37.734Z,0.00
2023-04-28T22:55:04.973Z,0.00
2023-04-28T22:57:31.755Z,0.00
2023-04-28T22:59:58.443Z,0.00
2023-04-28T23:02:25.534Z,0.00
2023-04-28T23:04:52.333Z,0.00
2023-04-28T23:07:19.190Z,0.00
2023-04-28T23:09:45.912Z,0.00
2023-04-28T23:12:12.697Z,0.00
2023-04-28T23:14:39.446Z,0.10
2023-04-28T23:17:06.314Z,0.00
2023-04-28T23:19:33.054Z,0.00
2023-04-28T23:21:59.921Z,0.00
2023-04-28T23:24:27.565Z,0.00
2023-04-28T23:26:59.565Z,0.00
2023-04-28T23:29:26.533Z,0.00
2023-04-28T23:31:55.067Z,0.00
2023-04-28T23:34:23.159Z,0.00
2023-04-28T23:36:50.496Z,0.00
2023-04-28T23:39:17.163Z,0.00
2023-04-28T23:41:43.932Z,0.10
2023-04-28T23:44:10.637Z,0.00
2023-04-28T23:46:37.382Z,0.00
2023-04-28T23:49:04.054Z,0.00
2023-04-28T23:51:32.419Z,0.00
2023-04-28T23:53:59.528Z,0.00
2023-04-28T23:56:26.961Z,0.00
2023-04-28T23:58:53.762Z,0.00
